sensor_id;sensor_type;location;lat;lon;timestamp;P1;durP1;ratioP1;P2;durP2;ratioP2
15112;SDS011;7657;50.140;7.076;2023-04-29T00:00:44;1.50;;;0.93;;
15112;SDS011;7657;50.140;7.076;2023-04-29T00:03:11;1.30;;;0.90;;
15112;SDS011;7657;50.140;7.076;2023-04-29T00:05:38;1.83;;;1.10;;
15112;SDS011;7657;50.140;7.076;2023-04-29T00:08:05;2.38;;;1.05;;
15112;SDS011;7657;50.140;7.076;2023-04-29T00:10:32;4.13;;;1.27;;
15112;SDS011;7657;50.140;7.076;2023-04-29T00:12:59;1.40;;;1.30;;
15112;SDS011;7657;50.140;7.076;2023-04-29T00:15:27;1.67;;;1.58;;
15112;SDS011;7657;50.140;7.076;2023-04-29T00:17:54;2.08;;;1.42;;
15112;SDS011;7657;50.140;7.076;2023-04-29T00:20:21;2.30;;;1.30;;
15112;SDS011;7657;50.140;7.076;2023-04-29T00:22:48;1.92;;;1.23;;
15112;SDS011;7657;50.140;7.076;2023-04-29T00:25:15;1.48;;;1.35;;
15112;SDS011;7657;50.140;7.076;2023-04-29T00:27:42;1.30;;;1.20;;
15112;SDS011;7657;50.140;7.076;2023-04-29T00:30:09;1.80;;;1.30;;
15112;SDS011;7657;50.140;7.076;2023-04-29T00:32:38;2.28;;;1.70;;
15112;SDS011;7657;50.140;7.076;2023-04-29T00:35:05;1.40;;;1.27;;
15112;SDS011;7657;50.140;7.076;2023-04-29T00:37:32;1.02;;;1.00;;
15112;SDS011;7657;50.140;7.076;2023-04-29T00:40:00;1.65;;;1.20;;
15112;SDS011;7657;50.140;7.076;2023-04-29T00:42:27;0.90;;;0.85;;
15112;SDS011;7657;50.140;7.076;2023-04-29T00:44:57;1.40;;;1.30;;
15112;SDS011;7657;50.140;7.076;2023-04-29T00:47:24;1.42;;;1.33;;
15112;SDS011;7657;50.140;7.076;2023-04-29T00:49:52;1.95;;;1.33;;
15112;SDS011;7657;50.140;7.076;2023-04-29T00:52:19;1.50;;;1.40;;
15112;SDS011;7657;50.140;7.076;2023-04-29T00:54:46;1.48;;;1.38;;
15112;SDS011;7657;50.140;7.076;2023-04-29T00:57:13;1.70;;;1.60;;
15112;SDS011;7657;50.140;7.076;2023-04-29T00:59:40;2.30;;;1.50;;
15112;SDS011;7657;50.140;7.076;2023-04-29T01:02:09;2.70;;;1.80;;
15112;SDS011;7657;50.140;7.076;2023-04-29T01:04:36;1.58;;;1.48;;
15112;SDS011;7657;50.140;7.076;2023-04-29T01:07:06;1.50;;;1.40;;
15112;SDS011;7657;50.140;7.076;2023-04-29T01:09:46;3.38;;;2.03;;
15112;SDS011;7657;50.140;7.076;2023-04-29T01:12:24;3.35;;;1.80;;
15112;SDS011;7657;50.140;7.076;2023-04-29T01:14:58;3.05;;;1.52;;
15112;SDS011;7657;50.140;7.076;2023-04-29T01:17:30;1.80;;;1.70;;
15112;SDS011;7657;50.140;7.076;2023-04-29T01:20:05;2.28;;;1.63;;
15112;SDS011;7657;50.140;7.076;2023-04-29T01:22:35;2.38;;;2.10;;
15112;SDS011;7657;50.140;7.076;2023-04-29T01:25:05;2.33;;;2.10;;
15112;SDS011;7657;50.140;7.076;2023-04-29T01:27:33;2.08;;;1.95;;
15112;SDS011;7657;50.140;7.076;2023-04-29T01:30:06;1.77;;;1.65;;
15112;SDS011;7657;50.140;7.076;2023-04-29T01:32:45;2.70;;;2.50;;
15112;SDS011;7657;50.140;7.076;2023-04-29T01:35:20;2.33;;;2.13;;
15112;SDS011;7657;50.140;7.076;2023-04-29T01:37:56;2.63;;;2.20;;
15112;SDS011;7657;50.140;7.076;2023-04-29T01:40:33;3.30;;;2.47;;
15112;SDS011;7657;50.140;7.076;2023-04-29T01:43:06;2.95;;;2.45;;
15112;SDS011;7657;50.140;7.076;2023-04-29T01:45:38;4.00;;;2.75;;
15112;SDS011;7657;50.140;7.076;2023-04-29T01:48:06;2.78;;;2.50;;
15112;SDS011;7657;50.140;7.076;2023-04-29T01:50:34;3.15;;;2.83;;
15112;SDS011;7657;50.140;7.076;2023-04-29T01:53:00;3.72;;;3.13;;
15112;SDS011;7657;50.140;7.076;2023-04-29T01:55:27;5.63;;;4.20;;
15112;SDS011;7657;50.140;7.076;2023-04-29T01:57:56;7.32;;;5.15;;
15112;SDS011;7657;50.140;7.076;2023-04-29T02:00:22;6.05;;;5.32;;
15112;SDS011;7657;50.140;7.076;2023-04-29T02:02:49;6.43;;;5.18;;
15112;SDS011;7657;50.140;7.076;2023-04-29T02:05:16;6.45;;;5.07;;
15112;SDS011;7657;50.140;7.076;2023-04-29T02:07:43;8.95;;;7.05;;
15112;SDS011;7657;50.140;7.076;2023-04-29T02:10:10;9.38;;;6.90;;
15112;SDS011;7657;50.140;7.076;2023-04-29T02:12:37;10.43;;;7.45;;
15112;SDS011;7657;50.140;7.076;2023-04-29T02:15:06;11.27;;;7.45;;
15112;SDS011;7657;50.140;7.076;2023-04-29T02:17:34;10.60;;;7.30;;
15112;SDS011;7657;50.140;7.076;2023-04-29T02:20:01;10.88;;;7.18;;
15112;SDS011;7657;50.140;7.076;2023-04-29T02:22:28;10.23;;;7.50;;
15112;SDS011;7657;50.140;7.076;2023-04-29T02:24:55;12.30;;;7.63;;
15112;SDS011;7657;50.140;7.076;2023-04-29T02:27:22;8.95;;;7.28;;
15112;SDS011;7657;50.140;7.076;2023-04-29T02:29:50;9.25;;;7.03;;
15112;SDS011;7657;50.140;7.076;2023-04-29T02:32:18;9.82;;;7.25;;
15112;SDS011;7657;50.140;7.076;2023-04-29T02:34:45;9.27;;;7.00;;
15112;SDS011;7657;50.140;7.076;2023-04-29T02:37:13;10.50;;;6.88;;
15112;SDS011;7657;50.140;7.076;2023-04-29T02:39:40;11.95;;;7.30;;
15112;SDS011;7657;50.140;7.076;2023-04-29T02:42:07;10.43;;;7.88;;
15112;SDS011;7657;50.140;7.076;2023-04-29T02:44:35;10.15;;;7.32;;
15112;SDS011;7657;50.140;7.076;2023-04-29T02:47:02;11.20;;;7.97;;
15112;SDS011;7657;50.140;7.076;2023-04-29T02:49:30;10.85;;;8.18;;
15112;SDS011;7657;50.140;7.076;2023-04-29T02:51:57;12.18;;;8.20;;
15112;SDS011;7657;50.140;7.076;2023-04-29T02:54:24;10.98;;;7.55;;
15112;SDS011;7657;50.140;7.076;2023-04-29T02:56:51;10.98;;;7.78;;
15112;SDS011;7657;50.140;7.076;2023-04-29T02:59:18;11.32;;;7.85;;
15112;SDS011;7657;50.140;7.076;2023-04-29T03:01:45;10.68;;;7.50;;
15112;SDS011;7657;50.140;7.076;2023-04-29T03:04:12;11.32;;;7.85;;
15112;SDS011;7657;50.140;7.076;2023-04-29T03:06:40;10.38;;;7.38;;
15112;SDS011;7657;50.140;7.076;2023-04-29T03:09:07;10.70;;;7.50;;
15112;SDS011;7657;50.140;7.076;2023-04-29T03:11:34;11.75;;;8.13;;
15112;SDS011;7657;50.140;7.076;2023-04-29T03:14:01;11.65;;;8.00;;
15112;SDS011;7657;50.140;7.076;2023-04-29T03:16:28;13.75;;;8.65;;
15112;SDS011;7657;50.140;7.076;2023-04-29T03:18:55;12.75;;;8.57;;
15112;SDS011;7657;50.140;7.076;2023-04-29T03:21:22;10.05;;;7.75;;
15112;SDS011;7657;50.140;7.076;2023-04-29T03:23:51;12.90;;;8.23;;
15112;SDS011;7657;50.140;7.076;2023-04-29T03:26:18;14.15;;;9.63;;
15112;SDS011;7657;50.140;7.076;2023-04-29T03:28:48;13.68;;;8.75;;
15112;SDS011;7657;50.140;7.076;2023-04-29T03:31:15;13.93;;;9.02;;
15112;SDS011;7657;50.140;7.076;2023-04-29T03:33:42;14.77;;;9.80;;
15112;SDS011;7657;50.140;7.076;2023-04-29T03:36:09;14.70;;;9.93;;
15112;SDS011;7657;50.140;7.076;2023-04-29T03:38:37;12.48;;;8.82;;
15112;SDS011;7657;50.140;7.076;2023-04-29T03:41:05;11.85;;;8.73;;
15112;SDS011;7657;50.140;7.076;2023-04-29T03:43:32;15.00;;;9.05;;
15112;SDS011;7657;50.140;7.076;2023-04-29T03:45:59;13.07;;;9.13;;
15112;SDS011;7657;50.140;7.076;2023-04-29T03:48:26;12.52;;;8.60;;
15112;SDS011;7657;50.140;7.076;2023-04-29T03:50:53;14.82;;;9.27;;
15112;SDS011;7657;50.140;7.076;2023-04-29T03:53:20;14.18;;;8.73;;
15112;SDS011;7657;50.140;7.076;2023-04-29T03:55:47;13.32;;;8.35;;
15112;SDS011;7657;50.140;7.076;2023-04-29T03:58:15;13.40;;;8.32;;
15112;SDS011;7657;50.140;7.076;2023-04-29T04:00:42;12.35;;;8.77;;
15112;SDS011;7657;50.140;7.076;2023-04-29T04:03:09;12.30;;;9.00;;
15112;SDS011;7657;50.140;7.076;2023-04-29T04:05:36;12.80;;;8.75;;
15112;SDS011;7657;50.140;7.076;2023-04-29T04:08:03;11.38;;;8.65;;
15112;SDS011;7657;50.140;7.076;2023-04-29T04:10:30;10.77;;;7.60;;
15112;SDS011;7657;50.140;7.076;2023-04-29T04:12:57;11.35;;;7.90;;
15112;SDS011;7657;50.140;7.076;2023-04-29T04:15:25;12.07;;;7.60;;
15112;SDS011;7657;50.140;7.076;2023-04-29T04:17:52;13.45;;;8.52;;
15112;SDS011;7657;50.140;7.076;2023-04-29T04:20:19;11.15;;;8.25;;
15112;SDS011;7657;50.140;7.076;2023-04-29T04:22:45;13.18;;;7.85;;
15112;SDS011;7657;50.140;7.076;2023-04-29T04:25:12;11.93;;;9.05;;
15112;SDS011;7657;50.140;7.076;2023-04-29T04:27:39;12.75;;;8.23;;
15112;SDS011;7657;50.140;7.076;2023-04-29T04:30:07;12.50;;;8.20;;
15112;SDS011;7657;50.140;7.076;2023-04-29T04:32:35;11.07;;;8.23;;
15112;SDS011;7657;50.140;7.076;2023-04-29T04:35:03;10.93;;;8.13;;
15112;SDS011;7657;50.140;7.076;2023-04-29T04:37:31;13.65;;;8.93;;
15112;SDS011;7657;50.140;7.076;2023-04-29T04:39:57;12.35;;;8.82;;
15112;SDS011;7657;50.140;7.076;2023-04-29T04:42:24;14.27;;;9.43;;
15112;SDS011;7657;50.140;7.076;2023-04-29T04:44:51;17.17;;;10.85;;
15112;SDS011;7657;50.140;7.076;2023-04-29T04:47:19;14.32;;;9.73;;
15112;SDS011;7657;50.140;7.076;2023-04-29T04:49:47;15.05;;;10.15;;
15112;SDS011;7657;50.140;7.076;2023-04-29T04:52:18;15.85;;;10.40;;
15112;SDS011;7657;50.140;7.076;2023-04-29T04:54:46;17.02;;;10.00;;
15112;SDS011;7657;50.140;7.076;2023-04-29T04:57:13;15.63;;;10.13;;
15112;SDS011;7657;50.140;7.076;2023-04-29T04:59:40;14.48;;;9.85;;
15112;SDS011;7657;50.140;7.076;2023-04-29T05:02:07;14.15;;;9.70;;
15112;SDS011;7657;50.140;7.076;2023-04-29T05:04:34;17.45;;;10.75;;
15112;SDS011;7657;50.140;7.076;2023-04-29T05:07:02;13.38;;;8.63;;
15112;SDS011;7657;50.140;7.076;2023-04-29T05:09:29;15.20;;;9.38;;
15112;SDS011;7657;50.140;7.076;2023-04-29T05:11:56;12.48;;;8.05;;
15112;SDS011;7657;50.140;7.076;2023-04-29T05:14:23;11.60;;;7.75;;
15112;SDS011;7657;50.140;7.076;2023-04-29T05:16:50;14.57;;;7.72;;
15112;SDS011;7657;50.140;7.076;2023-04-29T05:19:17;11.35;;;7.90;;
15112;SDS011;7657;50.140;7.076;2023-04-29T05:21:44;9.95;;;7.45;;
15112;SDS011;7657;50.140;7.076;2023-04-29T05:24:12;11.07;;;7.65;;
15112;SDS011;7657;50.140;7.076;2023-04-29T05:26:40;13.15;;;7.53;;
15112;SDS011;7657;50.140;7.076;2023-04-29T05:29:08;10.38;;;7.20;;
15112;SDS011;7657;50.140;7.076;2023-04-29T05:31:35;10.52;;;7.22;;
15112;SDS011;7657;50.140;7.076;2023-04-29T05:34:02;9.20;;;6.55;;
15112;SDS011;7657;50.140;7.076;2023-04-29T05:36:29;9.27;;;6.15;;
15112;SDS011;7657;50.140;7.076;2023-04-29T05:38:56;8.07;;;5.85;;
15112;SDS011;7657;50.140;7.076;2023-04-29T05:41:24;6.10;;;4.55;;
15112;SDS011;7657;50.140;7.076;2023-04-29T05:43:51;5.60;;;4.72;;
15112;SDS011;7657;50.140;7.076;2023-04-29T05:46:18;6.78;;;4.55;;
15112;SDS011;7657;50.140;7.076;2023-04-29T05:48:46;6.63;;;4.53;;
15112;SDS011;7657;50.140;7.076;2023-04-29T05:51:13;6.72;;;4.15;;
15112;SDS011;7657;50.140;7.076;2023-04-29T05:53:40;6.35;;;4.40;;
15112;SDS011;7657;50.140;7.076;2023-04-29T05:56:07;7.35;;;4.57;;
15112;SDS011;7657;50.140;7.076;2023-04-29T05:58:35;6.25;;;4.70;;
15112;SDS011;7657;50.140;7.076;2023-04-29T06:01:02;6.43;;;4.90;;
15112;SDS011;7657;50.140;7.076;2023-04-29T06:03:29;9.15;;;5.30;;
15112;SDS011;7657;50.140;7.076;2023-04-29T06:05:56;7.43;;;4.57;;
15112;SDS011;7657;50.140;7.076;2023-04-29T06:08:23;6.13;;;4.68;;
15112;SDS011;7657;50.140;7.076;2023-04-29T06:10:52;6.72;;;5.07;;
15112;SDS011;7657;50.140;7.076;2023-04-29T06:13:19;7.03;;;4.80;;
15112;SDS011;7657;50.140;7.076;2023-04-29T06:15:48;8.52;;;6.28;;
15112;SDS011;7657;50.140;7.076;2023-04-29T06:18:15;7.85;;;5.05;;
15112;SDS011;7657;50.140;7.076;2023-04-29T06:20:42;6.65;;;4.95;;
15112;SDS011;7657;50.140;7.076;2023-04-29T06:23:08;7.50;;;5.22;;
15112;SDS011;7657;50.140;7.076;2023-04-29T06:25:36;9.52;;;6.00;;
15112;SDS011;7657;50.140;7.076;2023-04-29T06:28:03;8.25;;;5.90;;
15112;SDS011;7657;50.140;7.076;2023-04-29T06:30:29;8.32;;;6.00;;
15112;SDS011;7657;50.140;7.076;2023-04-29T06:32:58;8.68;;;6.15;;
15112;SDS011;7657;50.140;7.076;2023-04-29T06:35:24;8.93;;;5.65;;
15112;SDS011;7657;50.140;7.076;2023-04-29T06:37:52;8.32;;;5.75;;
15112;SDS011;7657;50.140;7.076;2023-04-29T06:40:20;8.63;;;6.03;;
15112;SDS011;7657;50.140;7.076;2023-04-29T06:42:47;10.13;;;6.45;;
15112;SDS011;7657;50.140;7.076;2023-04-29T06:45:14;10.98;;;6.50;;
15112;SDS011;7657;50.140;7.076;2023-04-29T06:47:41;8.35;;;5.85;;
15112;SDS011;7657;50.140;7.076;2023-04-29T06:50:10;9.38;;;6.28;;
15112;SDS011;7657;50.140;7.076;2023-04-29T06:52:37;10.05;;;6.00;;
15112;SDS011;7657;50.140;7.076;2023-04-29T06:55:04;10.10;;;6.40;;
15112;SDS011;7657;50.140;7.076;2023-04-29T06:57:32;11.68;;;7.00;;
15112;SDS011;7657;50.140;7.076;2023-04-29T06:59:59;9.48;;;6.60;;
15112;SDS011;7657;50.140;7.076;2023-04-29T07:02:26;10.32;;;6.63;;
15112;SDS011;7657;50.140;7.076;2023-04-29T07:04:53;8.68;;;6.07;;
15112;SDS011;7657;50.140;7.076;2023-04-29T07:07:21;8.25;;;5.88;;
15112;SDS011;7657;50.140;7.076;2023-04-29T07:09:48;9.85;;;6.75;;
15112;SDS011;7657;50.140;7.076;2023-04-29T07:12:17;10.30;;;6.25;;
15112;SDS011;7657;50.140;7.076;2023-04-29T07:14:44;9.88;;;6.32;;
15112;SDS011;7657;50.140;7.076;2023-04-29T07:17:11;9.77;;;6.13;;
15112;SDS011;7657;50.140;7.076;2023-04-29T07:19:38;10.27;;;6.15;;
15112;SDS011;7657;50.140;7.076;2023-04-29T07:22:04;7.78;;;5.85;;
15112;SDS011;7657;50.140;7.076;2023-04-29T07:24:33;8.73;;;6.22;;
15112;SDS011;7657;50.140;7.076;2023-04-29T07:27:00;6.65;;;5.43;;
15112;SDS011;7657;50.140;7.076;2023-04-29T07:29:26;9.10;;;5.85;;
15112;SDS011;7657;50.140;7.076;2023-04-29T07:31:53;9.48;;;6.10;;
15112;SDS011;7657;50.140;7.076;2023-04-29T07:34:20;9.90;;;6.75;;
15112;SDS011;7657;50.140;7.076;2023-04-29T07:36:48;7.72;;;5.82;;
15112;SDS011;7657;50.140;7.076;2023-04-29T07:39:15;8.02;;;5.53;;
15112;SDS011;7657;50.140;7.076;2023-04-29T07:41:43;9.35;;;6.20;;
15112;SDS011;7657;50.140;7.076;2023-04-29T07:44:10;8.95;;;5.10;;
15112;SDS011;7657;50.140;7.076;2023-04-29T07:46:37;8.85;;;5.32;;
15112;SDS011;7657;50.140;7.076;2023-04-29T07:49:04;8.55;;;5.03;;
15112;SDS011;7657;50.140;7.076;2023-04-29T07:51:32;9.25;;;5.25;;
15112;SDS011;7657;50.140;7.076;2023-04-29T07:53:58;8.57;;;5.95;;
15112;SDS011;7657;50.140;7.076;2023-04-29T07:56:25;8.35;;;5.40;;
15112;SDS011;7657;50.140;7.076;2023-04-29T07:58:54;9.32;;;5.63;;
15112;SDS011;7657;50.140;7.076;2023-04-29T08:01:21;8.82;;;5.82;;
15112;SDS011;7657;50.140;7.076;2023-04-29T08:03:47;5.97;;;4.22;;
15112;SDS011;7657;50.140;7.076;2023-04-29T08:06:14;6.18;;;4.50;;
15112;SDS011;7657;50.140;7.076;2023-04-29T08:08:42;6.28;;;4.43;;
15112;SDS011;7657;50.140;7.076;2023-04-29T08:11:14;5.55;;;3.95;;
15112;SDS011;7657;50.140;7.076;2023-04-29T08:13:41;5.68;;;4.18;;
15112;SDS011;7657;50.140;7.076;2023-04-29T08:16:09;6.45;;;4.43;;
15112;SDS011;7657;50.140;7.076;2023-04-29T08:18:36;5.68;;;4.30;;
15112;SDS011;7657;50.140;7.076;2023-04-29T08:21:03;6.97;;;4.60;;
15112;SDS011;7657;50.140;7.076;2023-04-29T08:23:30;6.68;;;4.82;;
15112;SDS011;7657;50.140;7.076;2023-04-29T08:25:57;6.60;;;4.22;;
15112;SDS011;7657;50.140;7.076;2023-04-29T08:28:24;6.50;;;4.65;;
15112;SDS011;7657;50.140;7.076;2023-04-29T08:30:51;7.28;;;5.00;;
15112;SDS011;7657;50.140;7.076;2023-04-29T08:33:20;19.02;;;13.55;;
15112;SDS011;7657;50.140;7.076;2023-04-29T08:35:47;17.88;;;12.85;;
15112;SDS011;7657;50.140;7.076;2023-04-29T08:38:15;6.85;;;4.93;;
15112;SDS011;7657;50.140;7.076;2023-04-29T08:40:42;5.40;;;4.28;;
15112;SDS011;7657;50.140;7.076;2023-04-29T08:43:11;4.63;;;3.65;;
15112;SDS011;7657;50.140;7.076;2023-04-29T08:45:39;4.65;;;3.75;;
15112;SDS011;7657;50.140;7.076;2023-04-29T08:48:07;4.43;;;3.33;;
15112;SDS011;7657;50.140;7.076;2023-04-29T08:50:36;4.25;;;3.38;;
15112;SDS011;7657;50.140;7.076;2023-04-29T08:53:04;5.53;;;4.45;;
15112;SDS011;7657;50.140;7.076;2023-04-29T08:55:33;3.85;;;3.42;;
15112;SDS011;7657;50.140;7.076;2023-04-29T08:58:01;3.50;;;3.20;;
15112;SDS011;7657;50.140;7.076;2023-04-29T09:00:29;5.53;;;4.25;;
15112;SDS011;7657;50.140;7.076;2023-04-29T09:02:57;5.47;;;3.90;;
15112;SDS011;7657;50.140;7.076;2023-04-29T09:05:29;8.40;;;5.53;;
15112;SDS011;7657;50.140;7.076;2023-04-29T09:08:02;4.78;;;4.18;;
15112;SDS011;7657;50.140;7.076;2023-04-29T09:10:30;4.22;;;2.90;;
15112;SDS011;7657;50.140;7.076;2023-04-29T09:12:58;2.50;;;2.30;;
15112;SDS011;7657;50.140;7.076;2023-04-29T09:15:25;2.35;;;2.03;;
15112;SDS011;7657;50.140;7.076;2023-04-29T09:17:53;2.63;;;2.40;;
15112;SDS011;7657;50.140;7.076;2023-04-29T09:20:26;2.15;;;1.95;;
15112;SDS011;7657;50.140;7.076;2023-04-29T09:22:57;12.00;;;8.65;;
15112;SDS011;7657;50.140;7.076;2023-04-29T09:25:26;4.13;;;2.88;;
15112;SDS011;7657;50.140;7.076;2023-04-29T09:27:54;5.15;;;3.80;;
15112;SDS011;7657;50.140;7.076;2023-04-29T09:30:21;3.15;;;2.45;;
15112;SDS011;7657;50.140;7.076;2023-04-29T09:33:03;2.65;;;2.42;;
15112;SDS011;7657;50.140;7.076;2023-04-29T09:35:31;1.63;;;1.52;;
15112;SDS011;7657;50.140;7.076;2023-04-29T09:38:07;3.45;;;3.15;;
15112;SDS011;7657;50.140;7.076;2023-04-29T09:40:36;2.22;;;2.03;;
15112;SDS011;7657;50.140;7.076;2023-04-29T09:43:09;2.50;;;2.30;;
15112;SDS011;7657;50.140;7.076;2023-04-29T09:45:38;2.72;;;2.53;;
15112;SDS011;7657;50.140;7.076;2023-04-29T09:48:07;2.72;;;2.15;;
15112;SDS011;7657;50.140;7.076;2023-04-29T09:50:35;2.40;;;2.17;;
15112;SDS011;7657;50.140;7.076;2023-04-29T09:53:02;2.60;;;1.80;;
15112;SDS011;7657;50.140;7.076;2023-04-29T09:55:29;2.10;;;1.90;;
15112;SDS011;7657;50.140;7.076;2023-04-29T09:57:58;2.55;;;2.00;;
15112;SDS011;7657;50.140;7.076;2023-04-29T10:00:25;4.53;;;3.30;;
15112;SDS011;7657;50.140;7.076;2023-04-29T10:02:55;3.30;;;3.00;;
15112;SDS011;7657;50.140;7.076;2023-04-29T10:05:25;4.40;;;3.55;;
15112;SDS011;7657;50.140;7.076;2023-04-29T10:07:54;5.18;;;4.32;;
15112;SDS011;7657;50.140;7.076;2023-04-29T10:10:22;7.15;;;5.82;;
15112;SDS011;7657;50.140;7.076;2023-04-29T10:12:51;5.18;;;4.22;;
15112;SDS011;7657;50.140;7.076;2023-04-29T10:15:22;5.35;;;3.55;;
15112;SDS011;7657;50.140;7.076;2023-04-29T10:17:56;4.07;;;3.10;;
15112;SDS011;7657;50.140;7.076;2023-04-29T10:20:25;4.90;;;3.15;;
15112;SDS011;7657;50.140;7.076;2023-04-29T10:22:53;3.45;;;2.92;;
15112;SDS011;7657;50.140;7.076;2023-04-29T10:25:23;3.78;;;3.20;;
15112;SDS011;7657;50.140;7.076;2023-04-29T10:27:52;4.53;;;3.42;;
15112;SDS011;7657;50.140;7.076;2023-04-29T10:30:22;5.25;;;3.13;;
15112;SDS011;7657;50.140;7.076;2023-04-29T10:32:49;4.97;;;3.88;;
15112;SDS011;7657;50.140;7.076;2023-04-29T10:35:17;5.68;;;3.80;;
15112;SDS011;7657;50.140;7.076;2023-04-29T10:37:47;7.03;;;4.70;;
15112;SDS011;7657;50.140;7.076;2023-04-29T10:40:15;4.45;;;3.97;;
15112;SDS011;7657;50.140;7.076;2023-04-29T10:42:45;4.07;;;3.22;;
15112;SDS011;7657;50.140;7.076;2023-04-29T10:45:17;4.88;;;3.63;;
15112;SDS011;7657;50.140;7.076;2023-04-29T10:48:10;4.38;;;3.42;;
15112;SDS011;7657;50.140;7.076;2023-04-29T10:53:26;4.63;;;3.50;;
15112;SDS011;7657;50.140;7.076;2023-04-29T10:55:55;5.95;;;3.30;;
15112;SDS011;7657;50.140;7.076;2023-04-29T10:58:37;4.88;;;3.80;;
15112;SDS011;7657;50.140;7.076;2023-04-29T11:01:10;7.03;;;4.40;;
15112;SDS011;7657;50.140;7.076;2023-04-29T11:03:48;8.43;;;6.25;;
15112;SDS011;7657;50.140;7.076;2023-04-29T11:06:26;8.45;;;7.15;;
15112;SDS011;7657;50.140;7.076;2023-04-29T11:09:06;6.75;;;5.15;;
15112;SDS011;7657;50.140;7.076;2023-04-29T11:11:39;7.07;;;6.10;;
15112;SDS011;7657;50.140;7.076;2023-04-29T11:14:07;6.80;;;5.43;;
15112;SDS011;7657;50.140;7.076;2023-04-29T11:16:37;7.80;;;5.95;;
15112;SDS011;7657;50.140;7.076;2023-04-29T11:19:14;7.57;;;6.07;;
15112;SDS011;7657;50.140;7.076;2023-04-29T11:21:42;8.00;;;6.30;;
15112;SDS011;7657;50.140;7.076;2023-04-29T11:24:10;8.05;;;5.85;;
15112;SDS011;7657;50.140;7.076;2023-04-29T11:26:39;8.30;;;6.35;;
15112;SDS011;7657;50.140;7.076;2023-04-29T11:29:07;10.20;;;6.35;;
15112;SDS011;7657;50.140;7.076;2023-04-29T11:31:35;7.18;;;5.75;;
15112;SDS011;7657;50.140;7.076;2023-04-29T11:34:04;8.65;;;6.32;;
15112;SDS011;7657;50.140;7.076;2023-04-29T11:36:32;9.80;;;7.53;;
15112;SDS011;7657;50.140;7.076;2023-04-29T11:38:59;11.80;;;8.70;;
15112;SDS011;7657;50.140;7.076;2023-04-29T11:41:27;10.98;;;8.20;;
15112;SDS011;7657;50.140;7.076;2023-04-29T11:43:55;8.73;;;7.78;;
15112;SDS011;7657;50.140;7.076;2023-04-29T11:46:23;9.80;;;7.40;;
15112;SDS011;7657;50.140;7.076;2023-04-29T11:48:51;9.55;;;8.30;;
15112;SDS011;7657;50.140;7.076;2023-04-29T11:51:18;12.05;;;7.60;;
15112;SDS011;7657;50.140;7.076;2023-04-29T11:53:46;8.85;;;6.30;;
15112;SDS011;7657;50.140;7.076;2023-04-29T11:56:13;9.00;;;7.63;;
15112;SDS011;7657;50.140;7.076;2023-04-29T11:58:41;9.15;;;7.03;;
15112;SDS011;7657;50.140;7.076;2023-04-29T12:01:08;11.38;;;9.23;;
15112;SDS011;7657;50.140;7.076;2023-04-29T12:03:35;9.68;;;7.20;;
15112;SDS011;7657;50.140;7.076;2023-04-29T12:06:04;13.57;;;10.00;;
15112;SDS011;7657;50.140;7.076;2023-04-29T12:08:31;17.00;;;13.30;;
15112;SDS011;7657;50.140;7.076;2023-04-29T12:10:59;13.88;;;10.30;;
15112;SDS011;7657;50.140;7.076;2023-04-29T12:13:27;10.40;;;8.60;;
15112;SDS011;7657;50.140;7.076;2023-04-29T12:15:54;9.48;;;7.28;;
15112;SDS011;7657;50.140;7.076;2023-04-29T12:18:23;10.57;;;8.05;;
15112;SDS011;7657;50.140;7.076;2023-04-29T12:20:51;12.07;;;8.85;;
15112;SDS011;7657;50.140;7.076;2023-04-29T12:23:22;11.27;;;8.20;;
15112;SDS011;7657;50.140;7.076;2023-04-29T12:25:51;11.48;;;7.82;;
15112;SDS011;7657;50.140;7.076;2023-04-29T12:28:19;11.10;;;8.20;;
15112;SDS011;7657;50.140;7.076;2023-04-29T12:30:47;9.73;;;7.75;;
15112;SDS011;7657;50.140;7.076;2023-04-29T12:33:17;11.65;;;7.97;;
15112;SDS011;7657;50.140;7.076;2023-04-29T12:35:45;9.85;;;7.47;;
15112;SDS011;7657;50.140;7.076;2023-04-29T12:38:14;11.07;;;8.55;;
15112;SDS011;7657;50.140;7.076;2023-04-29T12:40:44;12.43;;;8.20;;
15112;SDS011;7657;50.140;7.076;2023-04-29T12:43:11;12.05;;;8.93;;
15112;SDS011;7657;50.140;7.076;2023-04-29T12:45:38;11.32;;;8.93;;
15112;SDS011;7657;50.140;7.076;2023-04-29T12:48:05;13.40;;;10.70;;
15112;SDS011;7657;50.140;7.076;2023-04-29T12:50:33;11.40;;;8.48;;
15112;SDS011;7657;50.140;7.076;2023-04-29T12:53:02;16.17;;;12.10;;
15112;SDS011;7657;50.140;7.076;2023-04-29T12:55:30;13.35;;;9.50;;
15112;SDS011;7657;50.140;7.076;2023-04-29T12:58:00;11.57;;;8.55;;
15112;SDS011;7657;50.140;7.076;2023-04-29T13:00:27;13.27;;;10.85;;
15112;SDS011;7657;50.140;7.076;2023-04-29T13:02:54;15.43;;;12.80;;
15112;SDS011;7657;50.140;7.076;2023-04-29T13:05:21;13.90;;;12.20;;
15112;SDS011;7657;50.140;7.076;2023-04-29T13:07:48;13.20;;;9.77;;
15112;SDS011;7657;50.140;7.076;2023-04-29T13:10:15;11.40;;;9.23;;
15112;SDS011;7657;50.140;7.076;2023-04-29T13:12:42;10.18;;;7.78;;
15112;SDS011;7657;50.140;7.076;2023-04-29T13:15:10;11.48;;;8.77;;
15112;SDS011;7657;50.140;7.076;2023-04-29T13:17:37;12.02;;;9.45;;
15112;SDS011;7657;50.140;7.076;2023-04-29T13:20:06;12.85;;;9.23;;
15112;SDS011;7657;50.140;7.076;2023-04-29T13:22:33;12.13;;;8.77;;
15112;SDS011;7657;50.140;7.076;2023-04-29T13:25:01;12.10;;;8.77;;
15112;SDS011;7657;50.140;7.076;2023-04-29T13:27:28;12.90;;;9.32;;
15112;SDS011;7657;50.140;7.076;2023-04-29T13:29:56;11.50;;;9.00;;
15112;SDS011;7657;50.140;7.076;2023-04-29T13:32:24;12.05;;;8.52;;
15112;SDS011;7657;50.140;7.076;2023-04-29T13:34:51;18.95;;;12.98;;
15112;SDS011;7657;50.140;7.076;2023-04-29T13:37:18;12.85;;;9.38;;
15112;SDS011;7657;50.140;7.076;2023-04-29T13:39:45;18.98;;;13.40;;
15112;SDS011;7657;50.140;7.076;2023-04-29T13:42:12;12.32;;;9.50;;
15112;SDS011;7657;50.140;7.076;2023-04-29T13:44:39;14.13;;;10.35;;
15112;SDS011;7657;50.140;7.076;2023-04-29T13:47:08;12.60;;;10.48;;
15112;SDS011;7657;50.140;7.076;2023-04-29T13:49:38;12.73;;;10.07;;
15112;SDS011;7657;50.140;7.076;2023-04-29T13:52:05;13.40;;;10.30;;
15112;SDS011;7657;50.140;7.076;2023-04-29T13:54:32;12.27;;;10.18;;
15112;SDS011;7657;50.140;7.076;2023-04-29T13:56:59;12.02;;;9.45;;
15112;SDS011;7657;50.140;7.076;2023-04-29T13:59:28;11.45;;;8.63;;
15112;SDS011;7657;50.140;7.076;2023-04-29T14:01:55;10.10;;;8.55;;
15112;SDS011;7657;50.140;7.076;2023-04-29T14:04:22;11.40;;;8.13;;
15112;SDS011;7657;50.140;7.076;2023-04-29T14:06:51;12.18;;;8.57;;
15112;SDS011;7657;50.140;7.076;2023-04-29T14:09:18;8.32;;;7.32;;
15112;SDS011;7657;50.140;7.076;2023-04-29T14:11:45;10.10;;;8.40;;
15112;SDS011;7657;50.140;7.076;2023-04-29T14:14:12;10.65;;;8.23;;
15112;SDS011;7657;50.140;7.076;2023-04-29T14:16:39;11.02;;;7.50;;
15112;SDS011;7657;50.140;7.076;2023-04-29T14:19:06;9.40;;;7.53;;
15112;SDS011;7657;50.140;7.076;2023-04-29T14:21:33;12.63;;;10.05;;
15112;SDS011;7657;50.140;7.076;2023-04-29T14:24:02;9.90;;;7.43;;
15112;SDS011;7657;50.140;7.076;2023-04-29T14:26:29;8.65;;;7.20;;
15112;SDS011;7657;50.140;7.076;2023-04-29T14:28:56;11.27;;;9.02;;
15112;SDS011;7657;50.140;7.076;2023-04-29T14:31:24;11.55;;;8.73;;
15112;SDS011;7657;50.140;7.076;2023-04-29T14:33:52;10.20;;;7.05;;
15112;SDS011;7657;50.140;7.076;2023-04-29T14:36:19;10.57;;;7.60;;
15112;SDS011;7657;50.140;7.076;2023-04-29T14:38:47;11.63;;;8.73;;
15112;SDS011;7657;50.140;7.076;2023-04-29T14:41:15;9.90;;;7.85;;
15112;SDS011;7657;50.140;7.076;2023-04-29T14:43:42;10.05;;;8.02;;
15112;SDS011;7657;50.140;7.076;2023-04-29T14:46:10;11.52;;;8.93;;
15112;SDS011;7657;50.140;7.076;2023-04-29T14:48:37;11.85;;;8.98;;
15112;SDS011;7657;50.140;7.076;2023-04-29T14:51:04;11.23;;;9.00;;
15112;SDS011;7657;50.140;7.076;2023-04-29T14:53:31;11.15;;;8.50;;
15112;SDS011;7657;50.140;7.076;2023-04-29T14:55:58;12.05;;;8.80;;
15112;SDS011;7657;50.140;7.076;2023-04-29T14:58:26;12.25;;;8.32;;
15112;SDS011;7657;50.140;7.076;2023-04-29T15:00:53;13.70;;;9.60;;
15112;SDS011;7657;50.140;7.076;2023-04-29T15:03:20;10.43;;;7.40;;